This is the latest recevied weather packets stored in our database for station/object DL1NER. If no packets are shown the sender has not sent any weather packets the latest 1 day(s).
| Time | Temp. | Humidity | Pressure | Rain* | Wind** | Luminosity | Snow |
|---|---|---|---|---|---|---|---|
| 1777996213 | 15.56° C | 71% | 1006.2 hPa | 0.51 mm | 3.13 m/s, 229° | 0 W/m² | - |
| 1777995613 | 16.11° C | 70% | 1006 hPa | 0.25 mm | 3.13 m/s, 200° | 0 W/m² | - |
| 1777995013 | 16.67° C | 65% | 1005.9 hPa | 0.25 mm | 4.47 m/s, 210° | 0 W/m² | - |
| 1777994412 | 19.44° C | 59% | 1005.6 hPa | 0 mm | 4.02 m/s, 200° | 0 W/m² | - |
| 1777993813 | 20.56° C | 51% | 1004.7 hPa | 0 mm | 0.89 m/s, 211° | 0 W/m² | - |
| 1777993213 | 20.56° C | 48% | 1004.6 hPa | 0 mm | 0.89 m/s, 259° | 0 W/m² | - |
| 1777992612 | 21.11° C | 51% | 1004.5 hPa | 0 mm | 0.89 m/s, 260° | 0 W/m² | - |
| 1777992013 | 21.11° C | 51% | 1004.5 hPa | 0 mm | 0.89 m/s, 323° | 0 W/m² | - |
| 1777991412 | 21.67° C | 49% | 1004.6 hPa | 0 mm | 1.34 m/s, 250° | 0 W/m² | - |
| 1777990812 | 22.22° C | 47% | 1004.5 hPa | 0 mm | 1.34 m/s, 248° | 0 W/m² | - |
| 1777990212 | 22.22° C | 49% | 1004.6 hPa | 0 mm | 1.34 m/s, 259° | 0 W/m² | - |
| 1777989612 | 22.78° C | 46% | 1004.5 hPa | 0 mm | 0.89 m/s, 313° | 0 W/m² | - |
| 1777989012 | 22.78° C | 48% | 1004.7 hPa | 0 mm | 0.89 m/s, 234° | 0 W/m² | - |
| 1777988412 | 22.78° C | 48% | 1004.7 hPa | 0 mm | 1.34 m/s, 249° | 0 W/m² | - |
| 1777987812 | 22.78° C | 44% | 1004.8 hPa | 0 mm | 0.89 m/s, 277° | 0 W/m² | - |
| 1777987212 | 23.33° C | 45% | 1005 hPa | 0 mm | 0.45 m/s, 273° | 0 W/m² | - |
| 1777986613 | 23.89° C | 43% | 1005.1 hPa | 0 mm | 0.89 m/s, 355° | 0 W/m² | - |
| 1777986012 | 23.89° C | 40% | 1005.1 hPa | 0 mm | 0.45 m/s, 360° | 0 W/m² | - |
| 1777985412 | 24.44° C | 40% | 1005.2 hPa | 0 mm | 0.89 m/s, 145° | 0 W/m² | - |
| 1777984812 | 23.89° C | 40% | 1005.4 hPa | 0 mm | 1.34 m/s, 223° | 0 W/m² | - |
| 1777984212 | 23.89° C | 46% | 1005.4 hPa | 0 mm | 1.34 m/s, 278° | 0 W/m² | - |
| 1777983613 | 25° C | 38% | 1005.6 hPa | 0 mm | 0.89 m/s, 244° | 0 W/m² | - |
| 1777983015 | 24.44° C | 39% | 1005.6 hPa | 0 mm | 0.89 m/s, 215° | 0 W/m² | - |
| 1777982412 | 24.44° C | 41% | 1005.7 hPa | 0 mm | 1.34 m/s, 252° | 0 W/m² | - |
| 1777981812 | 24.44° C | 44% | 1005.9 hPa | 0 mm | 0.89 m/s, 294° | 0 W/m² | - |
* Rain latest hour (hover to see other rain measurements)
** Current wind speed in m/s (hover to see current wind gust speed)